Southeast Texas Regional Airport Beaumont,Port Arthur US
ICAO: KBPT
IATA: BPT
Category: Medium
Scheduled Services: Yes

Elevation: 15 ft
TransAlt. 18000 ft.

Airport Communications:
BEAUMONT APP/DEP:121.3
ATIS:126.3
CLNC DEL:118.3
CTAF:119.5
GND:121.9
MONTGOMERY CO RDO:122.2
BEAUMONT TWR:119.5
UNICOM:122.95

KBPT Zoom In..

If you have problems with the map follow the link
https://www.worldairports.se/pages/airport.php?
ICAO=KBPT

Runways:

(A) RW 12 length 6750 ft width 150 ft
ILS 110.15 / hdg 116

(B) RW 16 length 5070 ft width 150 ft
---- / hdg 161

(C) RW 30 length 6750 ft width 150 ft
---- / hdg 296

(D) RW 34 length 5070 ft width 150 ft
---- / hdg 341

Location; KBPT
Day. 06 / Time. 11.53 Zulu
* Altimeter: 30.03
* Temperature: 18° c. 64.4°f.
* Wind from: 220° Speed 06 kn.
Dewpoint: 18° c.
Visibility: 8 Statute Miles.
Clouds: Few 1600 ft.
Clouds: Scattered 3000 ft.

KBPT 061153Z 22006KT 8SM FEW016 SCT030 18/18 A3003 RMK AO2 SLP167 T01830178 10189 20156 51009


Wind From 220°
Speed 06 kn.

 
 
jpsmedia worldairports.se 2019   terms of use